Time;durP1;ratioP1;P1;durP2;ratioP2;P2;SDS_P1;SDS_P2;PMS_P1;PMS_P2;Temp;Humidity;BMP_temperature;BMP_pressure;BME280_temperature;BME280_humidity;BME280_pressure;Samples;Min_cycle;Max_cycle;Signal;HPM_P1;HPM_P2
2023/06/10 00:01:24;;;;;;;6.05;4.32;;;17.40;92.30;;;;;;5068459;28;20047;-81
2023/06/10 00:03:51;;;;;;;6.38;4.22;;;17.40;92.40;;;;;;5068606;28;20068;-81
2023/06/10 00:06:17;;;;;;;9.00;4.68;;;17.40;92.50;;;;;;5069824;28;20222;-81
2023/06/10 00:08:43;;;;;;;9.00;4.30;;;17.40;92.60;;;;;;5068810;28;20471;-82
2023/06/10 00:11:10;;;;;;;8.93;4.00;;;17.20;92.60;;;;;;5068536;28;20040;-81
2023/06/10 00:13:36;;;;;;;9.52;4.72;;;17.30;92.80;;;;;;5051671;28;20136;-82
2023/06/10 00:16:03;;;;;;;6.57;4.40;;;17.20;92.90;;;;;;5067827;28;20040;-81
2023/06/10 00:18:30;;;;;;;5.10;4.50;;;17.20;92.90;;;;;;5068002;28;20041;-82
2023/06/10 00:20:57;;;;;;;5.82;4.10;;;17.20;93.10;;;;;;5067598;28;20044;-81
2023/06/10 00:23:24;;;;;;;7.90;4.35;;;17.20;93.20;;;;;;5051424;28;20044;-81
2023/06/10 00:25:50;;;;;;;7.32;4.18;;;17.10;93.30;;;;;;5068083;28;20135;-81
2023/06/10 00:28:16;;;;;;;8.80;4.50;;;17.10;93.50;;;;;;5051694;28;20124;-81
2023/06/10 00:30:41;;;;;;;7.93;4.72;;;17.10;93.70;;;;;;5067758;28;20064;-81
2023/06/10 00:33:07;;;;;;;5.82;4.32;;;17.10;93.90;;;;;;5068764;28;20206;-81
2023/06/10 00:35:32;;;;;;;6.57;4.40;;;17.00;94.00;;;;;;5068576;28;20095;-81
2023/06/10 00:37:58;;;;;;;7.88;4.55;;;17.30;94.30;;;;;;5069232;28;20060;-80
2023/06/10 00:40:24;;;;;;;9.18;4.80;;;17.00;94.50;;;;;;5067534;28;20044;-81
2023/06/10 00:42:49;;;;;;;8.05;4.95;;;17.10;94.50;;;;;;5067411;28;20431;-80
2023/06/10 00:45:15;;;;;;;9.48;5.13;;;17.10;94.80;;;;;;5050298;28;20041;-82
2023/06/10 00:47:40;;;;;;;6.55;4.80;;;16.90;94.90;;;;;;5067580;28;20072;-82
2023/06/10 00:50:07;;;;;;;9.00;4.90;;;17.10;95.40;;;;;;5050029;28;20090;-82
2023/06/10 00:52:34;;;;;;;6.65;4.82;;;16.80;95.40;;;;;;5067325;28;20053;-81
2023/06/10 00:55:00;;;;;;;6.70;5.03;;;16.80;95.60;;;;;;5067132;28;20084;-81
2023/06/10 00:57:26;;;;;;;8.32;4.88;;;16.80;95.80;;;;;;5066980;28;20036;-81
2023/06/10 00:59:52;;;;;;;7.28;4.82;;;16.80;96.10;;;;;;5050498;28;20047;-80
2023/06/10 01:02:17;;;;;;;6.70;5.00;;;16.70;96.30;;;;;;5068638;28;20040;-81
2023/06/10 01:04:43;;;;;;;7.68;5.35;;;16.70;96.50;;;;;;5067732;28;20125;-81
2023/06/10 01:07:16;;;;;;;7.68;5.18;;;16.70;96.80;;;;;;5068791;28;20119;-81
2023/06/10 01:10:04;;;;;;;8.50;4.80;;;16.60;96.90;;;;;;5067112;28;20440;-82
2023/06/10 01:12:36;;;;;;;9.70;5.60;;;16.60;97.20;;;;;;5068115;28;20044;-81
2023/06/10 01:15:03;;;;;;;9.55;5.18;;;16.70;97.60;;;;;;5066597;28;20562;-81
2023/06/10 01:17:30;;;;;;;9.95;5.28;;;16.50;97.70;;;;;;5066920;28;20086;-81
2023/06/10 01:19:59;;;;;;;6.68;4.78;;;16.50;97.90;;;;;;5066451;28;20573;-81
2023/06/10 01:22:28;;;;;;;9.30;6.00;;;16.50;98.10;;;;;;5067879;28;20055;-81
2023/06/10 01:25:00;;;;;;;8.00;4.88;;;16.50;98.20;;;;;;5066881;28;20048;-81
2023/06/10 01:27:32;;;;;;;9.32;5.63;;;16.50;98.70;;;;;;5066342;28;20052;-82
2023/06/10 01:30:15;;;;;;;7.13;4.88;;;16.40;98.80;;;;;;5049437;28;20072;-82
2023/06/10 01:32:46;;;;;;;7.47;4.75;;;16.40;99.20;;;;;;5066655;28;20052;-82
2023/06/10 01:35:12;;;;;;;6.80;5.38;;;16.40;99.20;;;;;;5065967;28;20404;-82
2023/06/10 01:37:44;;;;;;;5.97;4.50;;;16.30;99.40;;;;;;5066167;28;20434;-81
2023/06/10 01:40:12;;;;;;;10.27;5.18;;;16.20;99.60;;;;;;5066450;28;20076;-81
2023/06/10 01:42:37;;;;;;;6.30;4.75;;;16.20;99.80;;;;;;5066990;28;20095;-81
2023/06/10 01:45:04;;;;;;;7.03;5.10;;;16.30;99.90;;;;;;5066521;28;20044;-81
2023/06/10 01:47:30;;;;;;;6.22;4.88;;;16.20;99.90;;;;;;5066281;28;20051;-81
2023/06/10 01:49:56;;;;;;;7.20;4.88;;;16.40;99.90;;;;;;5066296;28;20044;-81
2023/06/10 01:52:21;;;;;;;6.10;4.53;;;16.10;99.90;;;;;;5049592;28;20040;-82
2023/06/10 01:54:47;;;;;;;6.85;5.13;;;16.10;99.90;;;;;;5067862;28;20040;-82
2023/06/10 01:57:12;;;;;;;7.93;5.28;;;16.10;99.90;;;;;;5066523;28;20052;-82
2023/06/10 01:59:38;;;;;;;9.07;5.32;;;16.10;99.90;;;;;;5066213;28;20044;-81
2023/06/10 02:02:05;;;;;;;8.45;4.85;;;16.00;99.90;;;;;;5066052;28;20440;-81
2023/06/10 02:04:31;;;;;;;8.13;5.20;;;16.00;99.90;;;;;;5049674;28;20044;-82
2023/06/10 02:06:56;;;;;;;7.57;4.97;;;16.00;99.90;;;;;;5066732;28;20044;-82
2023/06/10 02:09:22;;;;;;;8.02;5.32;;;15.90;99.90;;;;;;5067805;28;20480;-82
2023/06/10 02:11:48;;;;;;;6.78;4.93;;;15.90;99.90;;;;;;5067043;28;20044;-82
2023/06/10 02:14:14;;;;;;;9.27;5.70;;;15.90;99.90;;;;;;5066025;28;20411;-82
2023/06/10 02:16:40;;;;;;;7.57;5.30;;;15.80;99.90;;;;;;5067872;28;20131;-82
2023/06/10 02:19:06;;;;;;;6.82;5.10;;;15.80;99.90;;;;;;5065646;28;20040;-82
2023/06/10 02:21:34;;;;;;;8.80;5.20;;;15.80;99.90;;;;;;5065584;28;20112;-82
2023/06/10 02:24:00;;;;;;;8.70;5.38;;;15.80;99.90;;;;;;5066100;28;20293;-82
2023/06/10 02:26:26;;;;;;;9.20;5.40;;;15.70;99.90;;;;;;5065986;28;20129;-82
2023/06/10 02:28:52;;;;;;;8.35;5.63;;;15.60;99.90;;;;;;5067545;28;20086;-82
2023/06/10 02:31:18;;;;;;;7.93;5.00;;;15.60;99.90;;;;;;5066073;28;20128;-81
2023/06/10 02:33:44;;;;;;;5.85;4.78;;;15.60;99.90;;;;;;5066223;28;20201;-81
2023/06/10 02:36:13;;;;;;;11.68;5.13;;;15.50;99.90;;;;;;5065224;28;20056;-81
2023/06/10 02:38:40;;;;;;;8.18;5.55;;;15.50;99.90;;;;;;5065935;28;20088;-81
2023/06/10 02:41:06;;;;;;;8.90;5.22;;;15.50;99.90;;;;;;5065815;28;20408;-81
2023/06/10 02:43:31;;;;;;;8.02;5.15;;;15.40;99.90;;;;;;5068661;28;20045;-81
2023/06/10 02:45:57;;;;;;;6.93;4.65;;;15.40;99.90;;;;;;5053142;28;20040;-82
2023/06/10 02:48:27;;;;;;;6.50;4.65;;;15.40;99.90;;;;;;5071033;28;20462;-81
2023/06/10 02:50:53;;;;;;;8.98;4.90;;;15.30;99.90;;;;;;5069804;28;20484;-81
2023/06/10 02:53:19;;;;;;;6.22;4.60;;;15.30;99.90;;;;;;5052643;28;20075;-82
2023/06/10 02:55:44;;;;;;;7.53;5.10;;;15.20;99.90;;;;;;5070332;28;20113;-82
2023/06/10 02:58:10;;;;;;;8.57;5.25;;;15.20;99.90;;;;;;5071379;28;20382;-80
2023/06/10 03:00:36;;;;;;;7.28;4.63;;;15.20;99.90;;;;;;5069661;28;20079;-81
2023/06/10 03:03:03;;;;;;;9.25;4.80;;;15.10;99.90;;;;;;5053072;28;20175;-82
2023/06/10 03:05:32;;;;;;;7.70;4.97;;;15.10;99.90;;;;;;5052620;28;20045;-81
2023/06/10 03:07:58;;;;;;;8.55;5.13;;;15.00;99.90;;;;;;5052413;28;20079;-82
2023/06/10 03:10:24;;;;;;;8.40;5.07;;;15.00;99.90;;;;;;5070634;28;20079;-81
2023/06/10 03:12:49;;;;;;;8.18;5.20;;;15.00;99.90;;;;;;5052698;28;20123;-83
2023/06/10 03:15:15;;;;;;;9.75;5.40;;;15.00;99.90;;;;;;5069142;28;20040;-81
2023/06/10 03:17:41;;;;;;;8.40;5.47;;;14.90;99.90;;;;;;5068939;28;20052;-82
2023/06/10 03:20:10;;;;;;;6.72;4.95;;;14.90;99.90;;;;;;5070039;28;20041;-81
2023/06/10 03:22:35;;;;;;;7.55;5.75;;;14.80;99.90;;;;;;5052879;28;20047;-82
2023/06/10 03:25:01;;;;;;;7.15;4.45;;;14.90;99.90;;;;;;5068251;28;20416;-81
2023/06/10 03:27:28;;;;;;;8.60;4.90;;;14.80;99.90;;;;;;5068964;28;20571;-82
2023/06/10 03:29:54;;;;;;;8.10;5.30;;;14.70;99.90;;;;;;5052135;28;20053;-81
2023/06/10 03:32:20;;;;;;;9.18;5.00;;;14.70;99.90;;;;;;5051881;28;20048;-82
2023/06/10 03:34:47;;;;;;;6.15;4.93;;;14.70;99.90;;;;;;5069231;28;20044;-81
2023/06/10 03:37:13;;;;;;;9.20;5.38;;;14.60;99.90;;;;;;5068757;28;20566;-82
2023/06/10 03:39:38;;;;;;;7.45;4.80;;;14.70;99.90;;;;;;5068908;28;20079;-81
2023/06/10 03:42:05;;;;;;;6.07;4.65;;;14.80;99.90;;;;;;5068428;28;20049;-81
2023/06/10 03:44:31;;;;;;;6.95;5.15;;;14.60;99.90;;;;;;5067882;28;20113;-81
2023/06/10 03:46:57;;;;;;;5.60;4.65;;;14.60;99.90;;;;;;5068562;28;20091;-81
2023/06/10 03:49:26;;;;;;;8.05;5.03;;;14.60;99.90;;;;;;5051138;28;20045;-81
2023/06/10 03:51:52;;;;;;;9.10;5.50;;;14.60;99.90;;;;;;5068485;28;20088;-82
2023/06/10 03:54:17;;;;;;;8.45;5.32;;;14.60;99.90;;;;;;5068450;28;20106;-81
2023/06/10 03:56:43;;;;;;;13.63;5.10;;;14.60;99.90;;;;;;5051745;28;20050;-81
2023/06/10 03:59:09;;;;;;;6.97;4.93;;;14.60;99.90;;;;;;5051275;28;20144;-81
2023/06/10 04:01:37;;;;;;;8.52;5.20;;;14.60;99.90;;;;;;5070050;28;20131;-81
2023/06/10 04:04:03;;;;;;;8.43;4.75;;;14.90;99.90;;;;;;5067769;28;20051;-81
2023/06/10 04:06:28;;;;;;;8.52;4.65;;;14.60;99.90;;;;;;5068634;28;20052;-81
2023/06/10 04:08:57;;;;;;;8.65;5.22;;;14.60;99.90;;;;;;5068542;28;20041;-82
2023/06/10 04:11:24;;;;;;;8.27;5.10;;;14.60;99.90;;;;;;5068429;28;20044;-81
2023/06/10 04:13:50;;;;;;;7.47;4.82;;;14.60;99.90;;;;;;5069483;28;20100;-81
2023/06/10 04:16:16;;;;;;;7.68;5.05;;;14.60;99.90;;;;;;5068279;28;20048;-81
2023/06/10 04:18:42;;;;;;;9.02;5.25;;;14.60;99.90;;;;;;5067704;28;20037;-82
2023/06/10 04:21:08;;;;;;;8.98;4.93;;;14.60;99.90;;;;;;5067349;28;20044;-81
2023/06/10 04:23:36;;;;;;;8.60;5.65;;;14.70;99.90;;;;;;5069349;28;20496;-81
2023/06/10 04:26:02;;;;;;;8.18;5.20;;;14.80;99.90;;;;;;5067818;28;20051;-82
2023/06/10 04:28:28;;;;;;;6.22;4.80;;;14.70;99.90;;;;;;5067391;28;20036;-81
2023/06/10 04:30:53;;;;;;;9.38;5.00;;;14.70;99.90;;;;;;5067420;28;20079;-81
2023/06/10 04:33:19;;;;;;;9.45;5.40;;;14.70;99.90;;;;;;5067854;28;20075;-81
2023/06/10 04:35:47;;;;;;;7.07;4.57;;;14.70;99.90;;;;;;5067807;28;20242;-83
2023/06/10 04:38:13;;;;;;;9.95;5.35;;;14.70;99.90;;;;;;5050999;28;20095;-80
2023/06/10 04:40:39;;;;;;;8.15;5.18;;;14.70;99.90;;;;;;5067777;28;20468;-81
2023/06/10 04:43:04;;;;;;;9.05;5.22;;;14.70;99.90;;;;;;5067917;28;20101;-82
2023/06/10 04:45:31;;;;;;;5.95;4.47;;;14.80;99.90;;;;;;5067800;28;20497;-81
2023/06/10 04:47:57;;;;;;;6.78;4.90;;;14.80;99.90;;;;;;5067887;28;20052;-81
2023/06/10 04:50:23;;;;;;;8.55;5.30;;;14.80;99.90;;;;;;5067088;28;20447;-80
2023/06/10 04:52:49;;;;;;;7.78;5.53;;;14.80;99.90;;;;;;5067028;28;20094;-82
2023/06/10 04:55:15;;;;;;;8.15;5.45;;;14.90;99.90;;;;;;5067378;28;20120;-82
2023/06/10 04:57:41;;;;;;;7.28;5.05;;;14.90;99.90;;;;;;5068940;28;20492;-82
2023/06/10 05:00:08;;;;;;;7.20;5.43;;;14.90;99.90;;;;;;5068342;28;20052;-81
2023/06/10 05:02:34;;;;;;;9.18;5.25;;;15.00;99.90;;;;;;5067607;28;20048;-81
2023/06/10 05:05:00;;;;;;;8.57;5.63;;;15.00;99.90;;;;;;5049314;28;20051;-81
2023/06/10 05:07:25;;;;;;;10.23;5.57;;;15.00;99.90;;;;;;5067721;28;20404;-82
2023/06/10 05:09:51;;;;;;;8.45;5.50;;;15.10;99.90;;;;;;5067360;28;20119;-82
2023/06/10 05:12:17;;;;;;;9.80;5.50;;;15.00;99.90;;;;;;5068037;28;20040;-81
2023/06/10 05:14:42;;;;;;;10.40;5.55;;;15.10;99.90;;;;;;5067968;28;20051;-82
2023/06/10 05:17:08;;;;;;;8.85;6.00;;;15.10;99.90;;;;;;5067508;28;20413;-81
2023/06/10 05:19:35;;;;;;;11.80;5.85;;;15.10;99.90;;;;;;5066512;28;20488;-81
2023/06/10 05:22:01;;;;;;;8.40;5.55;;;15.10;99.90;;;;;;5068387;28;20049;-81
2023/06/10 05:24:28;;;;;;;7.45;5.45;;;15.20;99.90;;;;;;5068902;28;20048;-81
2023/06/10 05:26:53;;;;;;;11.30;5.90;;;15.30;99.90;;;;;;5067484;28;20048;-82
2023/06/10 05:29:19;;;;;;;8.95;5.15;;;15.50;99.90;;;;;;5049657;28;20350;-82
2023/06/10 05:31:45;;;;;;;7.55;5.80;;;16.40;99.90;;;;;;5066741;28;20053;-81
2023/06/10 05:34:11;;;;;;;9.98;5.47;;;18.00;99.90;;;;;;5066489;28;20072;-81
2023/06/10 05:36:36;;;;;;;9.88;5.47;;;18.70;99.90;;;;;;5050464;28;20045;-81
2023/06/10 05:39:02;;;;;;;8.85;5.68;;;19.50;99.90;;;;;;5066829;28;20051;-82
2023/06/10 05:41:28;;;;;;;8.70;5.65;;;20.30;99.90;;;;;;5067582;28;20052;-82
2023/06/10 05:43:54;;;;;;;7.63;5.28;;;21.10;99.90;;;;;;5068484;28;20238;-83
2023/06/10 05:46:20;;;;;;;6.35;5.05;;;21.40;99.90;;;;;;5067166;28;20163;-82
2023/06/10 05:48:45;;;;;;;9.35;5.55;;;21.70;98.70;;;;;;5068502;28;20477;-81
2023/06/10 05:51:11;;;;;;;8.02;5.15;;;21.60;97.40;;;;;;5067909;28;20101;-82
2023/06/10 05:53:37;;;;;;;8.70;4.90;;;22.10;96.30;;;;;;5067439;28;20052;-82
2023/06/10 05:56:02;;;;;;;7.05;5.13;;;22.70;95.00;;;;;;5068841;28;20048;-82
2023/06/10 05:58:28;;;;;;;11.52;6.18;;;23.00;93.30;;;;;;5069701;28;20044;-83
2023/06/10 06:00:53;;;;;;;8.77;5.75;;;23.20;92.30;;;;;;5068179;28;20449;-81
2023/06/10 06:03:19;;;;;;;6.47;4.95;;;23.30;90.90;;;;;;5067663;28;20147;-82
2023/06/10 06:05:46;;;;;;;7.15;5.00;;;23.90;90.30;;;;;;5067469;28;20052;-81
2023/06/10 06:08:13;;;;;;;8.82;5.28;;;24.30;88.80;;;;;;5066892;28;20057;-81
2023/06/10 06:10:38;;;;;;;8.00;4.55;;;24.30;86.00;;;;;;5065704;28;20109;-81
2023/06/10 06:13:04;;;;;;;7.07;4.35;;;24.90;84.10;;;;;;5068210;28;20557;-82
2023/06/10 06:15:30;;;;;;;10.60;4.97;;;24.90;82.40;;;;;;5066274;28;20144;-82
2023/06/10 06:17:55;;;;;;;7.45;4.90;;;24.50;80.80;;;;;;5069618;28;20135;-81
2023/06/10 06:20:22;;;;;;;8.18;4.72;;;24.40;80.60;;;;;;5071246;28;20040;-81
2023/06/10 06:22:47;;;;;;;6.80;4.38;;;24.50;79.60;;;;;;5055724;28;20044;-82
2023/06/10 06:25:13;;;;;;;6.38;4.70;;;24.70;79.10;;;;;;5072856;28;20044;-82
2023/06/10 06:27:39;;;;;;;6.85;4.40;;;24.50;78.60;;;;;;5073820;28;20048;-81
2023/06/10 06:30:05;;;;;;;7.75;4.80;;;24.70;79.00;;;;;;5073138;28;20109;-81
2023/06/10 06:32:31;;;;;;;6.55;4.32;;;24.50;77.70;;;;;;5072847;28;20507;-81
2023/06/10 06:34:57;;;;;;;8.50;4.95;;;24.30;77.60;;;;;;5073023;28;20172;-81
2023/06/10 06:37:24;;;;;;;8.05;4.20;;;24.10;78.00;;;;;;5070679;28;20400;-81
2023/06/10 06:39:53;;;;;;;7.20;4.10;;;23.80;79.20;;;;;;5071478;28;20041;-81
2023/06/10 06:42:20;;;;;;;8.90;4.68;;;22.70;81.60;;;;;;5070634;28;20045;-82
2023/06/10 06:44:46;;;;;;;6.50;4.50;;;22.10;85.20;;;;;;5072448;28;20131;-81
2023/06/10 06:47:12;;;;;;;8.77;4.68;;;21.30;87.90;;;;;;5071875;28;20159;-82
2023/06/10 06:49:38;;;;;;;6.47;4.63;;;20.80;90.10;;;;;;5072559;28;20128;-82
2023/06/10 06:52:03;;;;;;;7.97;4.47;;;20.60;91.50;;;;;;5072983;28;20083;-82
2023/06/10 06:54:29;;;;;;;8.02;5.03;;;20.40;92.20;;;;;;5072861;28;20056;-83
2023/06/10 06:56:55;;;;;;;7.38;4.78;;;20.50;93.10;;;;;;5054285;28;20133;-82
2023/06/10 06:59:21;;;;;;;7.72;4.45;;;20.10;94.00;;;;;;5072232;28;20138;-82
2023/06/10 07:01:47;;;;;;;7.20;4.57;;;20.20;94.50;;;;;;5055406;28;20040;-83
2023/06/10 07:04:15;;;;;;;6.60;4.38;;;20.50;94.90;;;;;;5071324;28;20114;-80
2023/06/10 07:06:41;;;;;;;7.60;4.22;;;20.20;94.50;;;;;;5070041;28;20052;-81
2023/06/10 07:09:08;;;;;;;5.95;4.53;;;20.20;94.60;;;;;;5072910;28;20044;-82
2023/06/10 07:11:34;;;;;;;9.98;5.20;;;20.30;94.70;;;;;;5073195;28;20522;-82
2023/06/10 07:13:59;;;;;;;6.70;4.30;;;20.10;94.70;;;;;;5072025;28;20040;-81
2023/06/10 07:16:25;;;;;;;5.30;4.13;;;20.40;95.00;;;;;;5055185;28;20539;-82
2023/06/10 07:18:52;;;;;;;5.97;4.82;;;20.00;94.90;;;;;;5071450;28;20051;-82
2023/06/10 07:21:17;;;;;;;6.47;4.20;;;20.00;95.20;;;;;;5070649;28;20044;-82
2023/06/10 07:23:43;;;;;;;6.95;4.97;;;20.00;95.20;;;;;;5071334;28;20389;-82
2023/06/10 07:26:10;;;;;;;9.30;4.55;;;20.20;95.40;;;;;;5053223;28;20052;-82
2023/06/10 07:28:37;;;;;;;9.00;4.55;;;20.30;95.40;;;;;;5070207;28;20064;-81
2023/06/10 07:31:03;;;;;;;6.82;4.18;;;20.40;95.20;;;;;;5071831;28;20131;-81
2023/06/10 07:33:29;;;;;;;10.82;5.07;;;20.80;95.30;;;;;;5072807;28;20476;-81
2023/06/10 07:35:54;;;;;;;6.85;4.20;;;20.60;95.10;;;;;;5069738;28;20048;-80
2023/06/10 07:38:20;;;;;;;6.63;4.70;;;20.60;95.20;;;;;;5071049;28;20455;-81
2023/06/10 07:40:46;;;;;;;6.35;4.55;;;20.70;95.10;;;;;;5071964;28;20136;-81
2023/06/10 07:43:11;;;;;;;8.30;4.75;;;20.80;94.60;;;;;;5072252;28;20385;-82
2023/06/10 07:45:39;;;;;;;6.07;4.20;;;20.90;94.50;;;;;;5069752;28;20083;-81
2023/06/10 07:48:05;;;;;;;7.05;4.63;;;21.10;94.20;;;;;;5055319;28;20048;-82
2023/06/10 07:50:30;;;;;;;7.25;4.28;;;21.10;93.60;;;;;;5070358;28;20416;-82
2023/06/10 07:52:56;;;;;;;7.88;5.47;;;21.30;93.30;;;;;;5072960;28;20051;-81
2023/06/10 07:55:21;;;;;;;7.50;5.15;;;21.60;93.10;;;;;;5069881;28;20060;-81
2023/06/10 07:57:47;;;;;;;6.10;4.82;;;21.40;92.90;;;;;;5070652;28;20535;-81
2023/06/10 08:00:13;;;;;;;8.52;5.93;;;21.60;92.90;;;;;;5053035;28;20171;-82
2023/06/10 08:02:39;;;;;;;5.90;4.90;;;21.60;92.60;;;;;;5071654;28;20041;-81
2023/06/10 08:05:05;;;;;;;9.43;5.20;;;21.80;92.30;;;;;;5071179;28;20558;-81
2023/06/10 08:07:31;;;;;;;7.40;5.80;;;21.80;92.00;;;;;;5069623;28;20044;-80
2023/06/10 08:09:57;;;;;;;8.05;5.35;;;22.00;91.80;;;;;;5051843;28;20048;-81
2023/06/10 08:12:22;;;;;;;7.22;5.03;;;22.00;91.70;;;;;;5072953;28;20102;-81
2023/06/10 08:14:48;;;;;;;6.45;5.20;;;21.90;90.90;;;;;;5068655;28;20466;-81
2023/06/10 08:17:14;;;;;;;8.25;5.20;;;21.80;90.40;;;;;;5070462;28;20036;-81
2023/06/10 08:19:39;;;;;;;8.88;5.30;;;21.80;90.00;;;;;;5067781;28;20048;-81
2023/06/10 08:22:05;;;;;;;7.30;5.03;;;21.90;89.50;;;;;;5069169;28;20036;-81
2023/06/10 08:24:30;;;;;;;8.73;5.03;;;22.10;88.70;;;;;;5069106;28;20105;-82
2023/06/10 08:26:57;;;;;;;8.25;5.20;;;22.30;87.60;;;;;;5052118;28;20044;-82
2023/06/10 08:29:23;;;;;;;7.35;5.32;;;22.30;86.50;;;;;;5070129;28;20457;-81
2023/06/10 08:31:49;;;;;;;7.47;5.15;;;22.20;85.70;;;;;;5070118;28;20056;-81
2023/06/10 08:34:14;;;;;;;5.72;4.60;;;22.40;85.10;;;;;;5051670;28;20107;-82
2023/06/10 08:36:40;;;;;;;5.72;4.18;;;22.40;84.50;;;;;;5068388;28;20428;-81
2023/06/10 08:39:06;;;;;;;6.57;4.32;;;22.60;84.30;;;;;;5067379;28;20044;-82
2023/06/10 08:41:36;;;;;;;6.32;4.30;;;23.00;83.70;;;;;;5067273;28;20052;-82
2023/06/10 08:44:07;;;;;;;5.75;4.75;;;23.10;82.00;;;;;;5067822;28;20059;-82
2023/06/10 08:46:33;;;;;;;7.00;4.35;;;23.20;81.30;;;;;;5069764;28;20066;-82
2023/06/10 08:49:07;;;;;;;4.60;4.15;;;23.40;80.90;;;;;;5070200;28;20493;-82
2023/06/10 08:51:35;;;;;;;5.60;4.47;;;23.40;80.00;;;;;;5069056;28;20040;-81
2023/06/10 08:54:05;;;;;;;5.88;4.65;;;23.40;79.30;;;;;;5052431;28;20059;-81
2023/06/10 08:56:34;;;;;;;6.32;4.32;;;23.50;78.50;;;;;;5068926;28;20083;-81
2023/06/10 08:59:02;;;;;;;5.22;3.90;;;23.70;78.70;;;;;;5067765;28;20066;-81
2023/06/10 09:01:28;;;;;;;4.93;4.43;;;23.80;76.90;;;;;;5069132;28;20048;-81
2023/06/10 09:03:55;;;;;;;5.25;4.10;;;23.80;75.50;;;;;;5051994;28;20051;-82
2023/06/10 09:06:21;;;;;;;7.00;4.18;;;23.70;75.10;;;;;;5052922;28;20059;-81
2023/06/10 09:08:47;;;;;;;5.70;4.55;;;23.80;73.50;;;;;;5070575;28;20055;-82
2023/06/10 09:11:13;;;;;;;5.55;4.28;;;23.90;72.20;;;;;;5068417;28;20487;-82
2023/06/10 09:13:39;;;;;;;5.68;4.00;;;24.10;71.30;;;;;;5069098;28;20046;-82
2023/06/10 09:16:04;;;;;;;6.47;4.15;;;24.30;71.40;;;;;;5068857;28;20064;-82
2023/06/10 09:18:30;;;;;;;5.75;4.07;;;24.50;69.00;;;;;;5068493;28;20127;-82
2023/06/10 09:20:56;;;;;;;6.32;3.92;;;24.60;68.50;;;;;;5068326;28;20047;-81
2023/06/10 09:23:22;;;;;;;10.88;4.68;;;24.60;67.90;;;;;;5067831;28;20110;-81
2023/06/10 09:25:58;;;;;;;4.63;3.55;;;24.60;67.10;;;;;;5068815;28;20484;-81
2023/06/10 09:28:24;;;;;;;4.50;4.10;;;24.70;66.00;;;;;;5070262;28;20063;-82
2023/06/10 09:31:03;;;;;;;6.25;3.92;;;24.80;66.60;;;;;;5068200;28;20162;-81
2023/06/10 09:33:29;;;;;;;5.75;3.88;;;24.90;64.90;;;;;;5068770;28;20116;-81
2023/06/10 09:35:56;;;;;;;5.85;3.97;;;24.80;65.40;;;;;;5051087;28;20130;-83
2023/06/10 09:38:22;;;;;;;4.93;4.03;;;24.90;63.90;;;;;;5067535;28;20044;-81
2023/06/10 09:40:52;;;;;;;5.25;3.97;;;24.90;63.30;;;;;;5067735;28;20127;-82
2023/06/10 09:43:18;;;;;;;5.05;3.35;;;24.80;63.30;;;;;;5068757;28;20045;-81
2023/06/10 09:45:44;;;;;;;4.97;3.72;;;24.80;63.60;;;;;;5066586;28;20399;-81
2023/06/10 09:48:10;;;;;;;5.88;3.80;;;24.90;63.70;;;;;;5068757;28;20044;-82
2023/06/10 09:50:45;;;;;;;5.05;3.70;;;25.10;62.60;;;;;;5067506;28;20084;-82
2023/06/10 09:53:11;;;;;;;4.68;3.60;;;25.20;60.80;;;;;;5069067;28;20045;-81
2023/06/10 09:55:41;;;;;;;4.50;3.58;;;25.20;60.70;;;;;;5049785;28;20044;-81
2023/06/10 09:58:07;;;;;;;5.65;3.50;;;25.40;59.70;;;;;;5053159;28;20067;-81
2023/06/10 10:00:33;;;;;;;5.88;3.70;;;25.30;60.00;;;;;;5066387;28;20449;-82
2023/06/10 10:03:00;;;;;;;4.18;3.20;;;25.40;59.60;;;;;;5052487;28;20036;-81
2023/06/10 10:05:26;;;;;;;6.55;3.45;;;25.60;58.70;;;;;;5070855;28;20533;-82
2023/06/10 10:07:52;;;;;;;7.45;3.80;;;25.70;57.90;;;;;;5069767;28;20053;-81
2023/06/10 10:10:20;;;;;;;6.47;3.40;;;25.90;57.20;;;;;;5067642;28;20047;-81
2023/06/10 10:12:47;;;;;;;7.18;3.25;;;25.90;56.50;;;;;;5070805;28;20403;-82
2023/06/10 10:15:18;;;;;;;3.65;3.15;;;25.90;55.30;;;;;;5068173;28;20396;-81
2023/06/10 10:17:52;;;;;;;5.07;3.38;;;26.20;55.00;;;;;;5069522;28;20113;-81
2023/06/10 10:20:26;;;;;;;4.15;3.15;;;26.10;53.20;;;;;;5069254;28;20051;-82
2023/06/10 10:22:56;;;;;;;5.05;3.40;;;26.00;53.20;;;;;;5068920;28;20087;-82
2023/06/10 10:25:40;;;;;;;4.88;3.00;;;25.90;53.90;;;;;;5070416;28;20049;-82
2023/06/10 10:28:11;;;;;;;5.30;3.40;;;25.90;52.00;;;;;;5066870;28;20123;-81
2023/06/10 10:30:42;;;;;;;3.78;3.00;;;25.90;53.30;;;;;;5069111;28;20053;-82
2023/06/10 10:33:15;;;;;;;4.50;2.78;;;25.80;51.30;;;;;;5067988;28;20123;-82
2023/06/10 10:35:43;;;;;;;3.10;2.75;;;26.10;50.10;;;;;;5068325;28;20119;-82
2023/06/10 10:38:10;;;;;;;4.85;3.10;;;26.10;51.10;;;;;;5069453;28;20443;-82
2023/06/10 10:40:36;;;;;;;4.15;2.70;;;26.10;50.40;;;;;;5070953;28;20041;-82
2023/06/10 10:43:03;;;;;;;7.93;3.72;;;26.10;50.20;;;;;;5069489;28;20104;-83
2023/06/10 10:45:29;;;;;;;3.17;2.80;;;26.30;50.70;;;;;;5069066;28;20044;-82
2023/06/10 10:47:56;;;;;;;3.70;2.97;;;26.20;50.90;;;;;;5052005;28;20124;-81
2023/06/10 10:50:22;;;;;;;4.40;3.13;;;26.20;51.10;;;;;;5067338;28;20123;-81
2023/06/10 10:52:58;;;;;;;3.15;2.85;;;26.20;50.60;;;;;;5066991;28;20041;-82
2023/06/10 10:55:24;;;;;;;3.63;2.40;;;26.30;48.60;;;;;;5066876;28;20082;-82
2023/06/10 10:58:07;;;;;;;5.45;2.70;;;26.60;48.70;;;;;;5051855;28;20047;-82
2023/06/10 11:00:44;;;;;;;2.28;2.05;;;26.40;45.10;;;;;;5070532;28;20094;-82
2023/06/10 11:03:16;;;;;;;3.13;2.65;;;26.40;44.70;;;;;;5068542;28;20127;-82
2023/06/10 11:05:50;;;;;;;3.10;2.40;;;26.50;46.30;;;;;;5072842;28;20052;-81
2023/06/10 11:08:47;;;;;;;4.88;2.65;;;26.50;46.40;;;;;;5073391;28;20041;-82
2023/06/10 11:11:27;;;;;;;3.80;2.47;;;26.50;45.30;;;;;;5055542;28;20051;-81
2023/06/10 11:14:01;;;;;;;3.78;2.83;;;26.60;44.50;;;;;;5074441;28;20101;-82
2023/06/10 11:16:28;;;;;;;2.15;1.95;;;26.70;46.50;;;;;;5074953;28;20051;-83
2023/06/10 11:18:55;;;;;;;5.22;2.95;;;26.80;44.40;;;;;;5076662;28;20345;-80
2023/06/10 11:21:23;;;;;;;4.10;2.63;;;26.90;44.10;;;;;;5074118;28;20036;-82
2023/06/10 11:23:50;;;;;;;5.60;2.80;;;26.90;44.20;;;;;;5074217;28;20183;-82
2023/06/10 11:26:26;;;;;;;3.22;2.67;;;27.00;44.90;;;;;;5073027;28;20613;-83
2023/06/10 11:28:55;;;;;;;3.40;2.35;;;27.00;46.00;;;;;;5076521;28;20519;-81
2023/06/10 11:31:50;;;;;;;5.65;2.17;;;26.90;45.80;;;;;;5073901;28;20455;-82
2023/06/10 11:34:26;;;;;;;2.75;2.42;;;27.00;41.60;;;;;;5072109;28;20464;-82
2023/06/10 11:36:53;;;;;;;5.47;2.60;;;27.10;42.60;;;;;;5073605;28;20048;-82
2023/06/10 11:39:19;;;;;;;3.35;2.20;;;27.10;41.80;;;;;;5072719;28;20040;-82
2023/06/10 11:41:45;;;;;;;3.67;2.40;;;27.20;42.60;;;;;;5056429;28;20047;-82
2023/06/10 11:44:13;;;;;;;2.88;2.40;;;27.10;43.80;;;;;;5075275;28;20114;-82
2023/06/10 11:46:39;;;;;;;2.75;2.38;;;27.40;43.50;;;;;;5071006;28;20048;-81
2023/06/10 11:49:05;;;;;;;2.70;2.50;;;27.40;43.50;;;;;;5070630;28;20048;-82
2023/06/10 11:51:40;;;;;;;3.47;2.30;;;27.40;43.30;;;;;;5071266;28;20071;-82
2023/06/10 11:54:08;;;;;;;2.67;2.30;;;27.50;39.50;;;;;;5054591;28;20041;-81
2023/06/10 11:56:34;;;;;;;3.25;2.50;;;27.50;41.50;;;;;;5073662;28;20049;-82
2023/06/10 11:59:06;;;;;;;2.83;2.38;;;27.60;42.00;;;;;;5072526;28;20051;-82
2023/06/10 12:01:34;;;;;;;3.35;2.42;;;27.70;42.10;;;;;;5071153;28;20144;-83
2023/06/10 12:04:08;;;;;;;3.30;2.30;;;27.80;41.70;;;;;;5072116;28;20053;-82
2023/06/10 12:06:47;;;;;;;2.63;2.00;;;27.90;38.20;;;;;;5069587;28;20406;-82
2023/06/10 12:09:17;;;;;;;2.80;2.40;;;28.00;38.80;;;;;;5070100;28;20048;-82
2023/06/10 12:11:43;;;;;;;4.05;2.38;;;28.00;39.40;;;;;;5072712;28;20108;-82
2023/06/10 12:14:09;;;;;;;2.95;2.58;;;28.00;41.20;;;;;;5069943;28;20056;-82
2023/06/10 12:16:35;;;;;;;4.90;2.30;;;28.00;42.00;;;;;;5069510;28;20059;-81
2023/06/10 12:19:02;;;;;;;3.40;2.45;;;28.10;42.60;;;;;;5068426;28;20052;-81
2023/06/10 12:21:28;;;;;;;2.47;2.17;;;28.10;41.90;;;;;;5071011;28;20171;-82
2023/06/10 12:24:08;;;;;;;2.92;2.33;;;28.10;40.40;;;;;;5071444;28;20466;-82
2023/06/10 12:26:41;;;;;;;6.03;2.60;;;28.10;40.00;;;;;;5070172;28;20060;-83
2023/06/10 12:29:23;;;;;;;3.03;2.40;;;28.20;40.80;;;;;;5071794;28;20041;-83
2023/06/10 12:32:00;;;;;;;2.70;2.30;;;28.30;42.30;;;;;;5073536;28;20056;-82
2023/06/10 12:34:37;;;;;;;3.30;2.30;;;28.30;37.40;;;;;;5069881;28;20056;-82
2023/06/10 12:37:05;;;;;;;3.25;2.40;;;28.20;38.70;;;;;;5071328;28;20116;-82
2023/06/10 12:39:33;;;;;;;4.05;2.40;;;28.30;40.30;;;;;;5072082;28;20127;-82
2023/06/10 12:41:59;;;;;;;4.68;2.67;;;28.10;41.30;;;;;;5071488;28;20464;-82
2023/06/10 12:44:30;;;;;;;3.47;2.20;;;28.00;41.90;;;;;;5073358;28;20044;-82
2023/06/10 12:46:55;;;;;;;4.78;2.40;;;27.90;41.50;;;;;;5053748;28;20177;-82